sensor_id;sensor_type;location;lat;lon;timestamp;P1;durP1;ratioP1;P2;durP2;ratioP2
44328;SDS011;30039;51.462;6.892;2023-09-30T00:02:04;9.50;;;3.95;;
44328;SDS011;30039;51.462;6.892;2023-09-30T00:04:50;13.30;;;3.92;;
44328;SDS011;30039;51.462;6.892;2023-09-30T00:07:35;13.20;;;4.20;;
44328;SDS011;30039;51.462;6.892;2023-09-30T00:10:21;14.23;;;4.47;;
44328;SDS011;30039;51.462;6.892;2023-09-30T00:13:07;12.90;;;3.95;;
44328;SDS011;30039;51.462;6.892;2023-09-30T00:15:53;7.60;;;3.20;;
44328;SDS011;30039;51.462;6.892;2023-09-30T00:18:38;14.30;;;3.55;;
44328;SDS011;30039;51.462;6.892;2023-09-30T00:21:24;9.95;;;3.83;;
44328;SDS011;30039;51.462;6.892;2023-09-30T00:24:10;15.98;;;3.78;;
44328;SDS011;30039;51.462;6.892;2023-09-30T00:26:55;10.25;;;3.70;;
44328;SDS011;30039;51.462;6.892;2023-09-30T00:29:41;10.70;;;3.10;;
44328;SDS011;30039;51.462;6.892;2023-09-30T00:32:28;14.95;;;3.72;;
44328;SDS011;30039;51.462;6.892;2023-09-30T00:35:13;10.70;;;3.30;;
44328;SDS011;30039;51.462;6.892;2023-09-30T00:37:59;9.52;;;3.42;;
44328;SDS011;30039;51.462;6.892;2023-09-30T00:40:48;10.93;;;3.58;;
44328;SDS011;30039;51.462;6.892;2023-09-30T00:43:34;10.48;;;3.60;;
44328;SDS011;30039;51.462;6.892;2023-09-30T00:49:05;12.52;;;3.58;;
44328;SDS011;30039;51.462;6.892;2023-09-30T00:51:51;10.98;;;3.30;;
44328;SDS011;30039;51.462;6.892;2023-09-30T00:54:37;10.80;;;3.20;;
44328;SDS011;30039;51.462;6.892;2023-09-30T00:57:24;10.23;;;3.35;;
44328;SDS011;30039;51.462;6.892;2023-09-30T01:00:10;8.73;;;2.78;;
44328;SDS011;30039;51.462;6.892;2023-09-30T01:02:57;13.85;;;3.60;;
44328;SDS011;30039;51.462;6.892;2023-09-30T01:05:45;10.63;;;3.70;;
44328;SDS011;30039;51.462;6.892;2023-09-30T01:08:31;6.80;;;3.50;;
44328;SDS011;30039;51.462;6.892;2023-09-30T01:11:17;9.40;;;3.67;;
44328;SDS011;30039;51.462;6.892;2023-09-30T01:14:03;11.73;;;3.85;;
44328;SDS011;30039;51.462;6.892;2023-09-30T01:16:48;11.50;;;4.13;;
44328;SDS011;30039;51.462;6.892;2023-09-30T01:19:34;12.43;;;3.92;;
44328;SDS011;30039;51.462;6.892;2023-09-30T01:22:20;9.80;;;3.67;;
44328;SDS011;30039;51.462;6.892;2023-09-30T01:25:06;11.98;;;4.47;;
44328;SDS011;30039;51.462;6.892;2023-09-30T01:27:51;8.73;;;4.20;;
44328;SDS011;30039;51.462;6.892;2023-09-30T01:30:37;13.50;;;4.18;;
44328;SDS011;30039;51.462;6.892;2023-09-30T01:33:23;14.02;;;3.85;;
44328;SDS011;30039;51.462;6.892;2023-09-30T01:36:08;14.48;;;3.85;;
44328;SDS011;30039;51.462;6.892;2023-09-30T01:38:54;13.38;;;4.13;;
44328;SDS011;30039;51.462;6.892;2023-09-30T01:41:39;10.93;;;3.85;;
44328;SDS011;30039;51.462;6.892;2023-09-30T01:44:25;12.95;;;3.92;;
44328;SDS011;30039;51.462;6.892;2023-09-30T01:47:11;13.45;;;4.07;;
44328;SDS011;30039;51.462;6.892;2023-09-30T01:49:57;15.10;;;4.35;;
44328;SDS011;30039;51.462;6.892;2023-09-30T01:52:42;9.73;;;4.15;;
44328;SDS011;30039;51.462;6.892;2023-09-30T01:55:28;10.02;;;3.70;;
44328;SDS011;30039;51.462;6.892;2023-09-30T01:58:13;14.93;;;4.30;;
44328;SDS011;30039;51.462;6.892;2023-09-30T02:01:02;12.70;;;4.22;;
44328;SDS011;30039;51.462;6.892;2023-09-30T02:03:48;14.00;;;4.32;;
44328;SDS011;30039;51.462;6.892;2023-09-30T02:06:34;11.15;;;4.20;;
44328;SDS011;30039;51.462;6.892;2023-09-30T02:09:21;11.02;;;4.18;;
44328;SDS011;30039;51.462;6.892;2023-09-30T02:12:06;11.82;;;4.28;;
44328;SDS011;30039;51.462;6.892;2023-09-30T02:14:57;15.90;;;4.18;;
44328;SDS011;30039;51.462;6.892;2023-09-30T02:17:43;10.90;;;4.07;;
44328;SDS011;30039;51.462;6.892;2023-09-30T02:20:30;13.68;;;4.18;;
44328;SDS011;30039;51.462;6.892;2023-09-30T02:23:17;14.13;;;4.18;;
44328;SDS011;30039;51.462;6.892;2023-09-30T02:26:03;11.68;;;4.50;;
44328;SDS011;30039;51.462;6.892;2023-09-30T02:28:48;12.55;;;4.00;;
44328;SDS011;30039;51.462;6.892;2023-09-30T02:31:34;12.00;;;4.22;;
44328;SDS011;30039;51.462;6.892;2023-09-30T02:34:19;12.07;;;4.40;;
44328;SDS011;30039;51.462;6.892;2023-09-30T02:37:05;11.27;;;3.80;;
44328;SDS011;30039;51.462;6.892;2023-09-30T02:39:50;13.07;;;4.28;;
44328;SDS011;30039;51.462;6.892;2023-09-30T02:42:39;14.82;;;4.43;;
44328;SDS011;30039;51.462;6.892;2023-09-30T02:45:25;10.60;;;4.00;;
44328;SDS011;30039;51.462;6.892;2023-09-30T02:48:10;13.93;;;3.97;;
44328;SDS011;30039;51.462;6.892;2023-09-30T02:50:56;11.75;;;4.13;;
44328;SDS011;30039;51.462;6.892;2023-09-30T02:53:42;10.07;;;3.60;;
44328;SDS011;30039;51.462;6.892;2023-09-30T02:56:27;8.48;;;3.30;;
44328;SDS011;30039;51.462;6.892;2023-09-30T02:59:15;12.55;;;3.97;;
44328;SDS011;30039;51.462;6.892;2023-09-30T03:02:02;11.43;;;3.75;;
44328;SDS011;30039;51.462;6.892;2023-09-30T03:04:48;10.95;;;3.70;;
44328;SDS011;30039;51.462;6.892;2023-09-30T03:07:35;8.15;;;3.80;;
44328;SDS011;30039;51.462;6.892;2023-09-30T03:10:22;12.02;;;4.30;;
44328;SDS011;30039;51.462;6.892;2023-09-30T03:13:09;10.45;;;3.88;;
44328;SDS011;30039;51.462;6.892;2023-09-30T03:15:54;12.43;;;4.40;;
44328;SDS011;30039;51.462;6.892;2023-09-30T03:18:42;12.25;;;3.78;;
44328;SDS011;30039;51.462;6.892;2023-09-30T03:21:29;10.00;;;4.05;;
44328;SDS011;30039;51.462;6.892;2023-09-30T03:24:15;11.40;;;4.47;;
44328;SDS011;30039;51.462;6.892;2023-09-30T03:27:00;11.23;;;3.97;;
44328;SDS011;30039;51.462;6.892;2023-09-30T03:29:46;11.23;;;3.58;;
44328;SDS011;30039;51.462;6.892;2023-09-30T03:32:31;13.10;;;4.00;;
44328;SDS011;30039;51.462;6.892;2023-09-30T03:35:18;10.23;;;3.92;;
44328;SDS011;30039;51.462;6.892;2023-09-30T03:38:04;11.25;;;4.10;;
44328;SDS011;30039;51.462;6.892;2023-09-30T03:40:50;10.25;;;4.20;;
44328;SDS011;30039;51.462;6.892;2023-09-30T03:43:35;10.90;;;3.95;;
44328;SDS011;30039;51.462;6.892;2023-09-30T03:46:26;11.85;;;4.63;;
44328;SDS011;30039;51.462;6.892;2023-09-30T03:49:11;12.57;;;4.70;;
44328;SDS011;30039;51.462;6.892;2023-09-30T03:51:57;12.60;;;4.20;;
44328;SDS011;30039;51.462;6.892;2023-09-30T03:54:43;11.90;;;4.18;;
44328;SDS011;30039;51.462;6.892;2023-09-30T03:57:28;9.90;;;4.07;;
44328;SDS011;30039;51.462;6.892;2023-09-30T04:00:14;10.55;;;4.15;;
44328;SDS011;30039;51.462;6.892;2023-09-30T04:03:04;13.45;;;4.28;;
44328;SDS011;30039;51.462;6.892;2023-09-30T04:05:49;9.25;;;4.20;;
44328;SDS011;30039;51.462;6.892;2023-09-30T04:08:36;13.57;;;4.47;;
44328;SDS011;30039;51.462;6.892;2023-09-30T04:11:22;10.70;;;3.67;;
44328;SDS011;30039;51.462;6.892;2023-09-30T04:14:09;12.32;;;4.72;;
44328;SDS011;30039;51.462;6.892;2023-09-30T04:16:55;10.38;;;4.28;;
44328;SDS011;30039;51.462;6.892;2023-09-30T04:19:40;13.02;;;4.45;;
44328;SDS011;30039;51.462;6.892;2023-09-30T04:22:26;13.95;;;4.57;;
44328;SDS011;30039;51.462;6.892;2023-09-30T04:25:13;12.05;;;4.32;;
44328;SDS011;30039;51.462;6.892;2023-09-30T04:28:01;12.57;;;4.53;;
44328;SDS011;30039;51.462;6.892;2023-09-30T04:30:48;12.15;;;4.70;;
44328;SDS011;30039;51.462;6.892;2023-09-30T04:33:36;12.35;;;4.35;;
44328;SDS011;30039;51.462;6.892;2023-09-30T04:36:22;12.88;;;4.10;;
44328;SDS011;30039;51.462;6.892;2023-09-30T04:39:08;10.40;;;4.25;;
44328;SDS011;30039;51.462;6.892;2023-09-30T04:41:53;12.35;;;4.30;;
44328;SDS011;30039;51.462;6.892;2023-09-30T04:44:40;10.18;;;4.15;;
44328;SDS011;30039;51.462;6.892;2023-09-30T04:47:27;10.52;;;4.00;;
44328;SDS011;30039;51.462;6.892;2023-09-30T04:50:12;12.93;;;4.28;;
44328;SDS011;30039;51.462;6.892;2023-09-30T04:53:01;9.57;;;4.20;;
44328;SDS011;30039;51.462;6.892;2023-09-30T04:55:47;13.55;;;4.57;;
44328;SDS011;30039;51.462;6.892;2023-09-30T04:58:35;10.48;;;4.55;;
44328;SDS011;30039;51.462;6.892;2023-09-30T05:01:21;13.55;;;4.78;;
44328;SDS011;30039;51.462;6.892;2023-09-30T05:04:06;11.77;;;4.80;;
44328;SDS011;30039;51.462;6.892;2023-09-30T05:06:52;16.02;;;5.03;;
44328;SDS011;30039;51.462;6.892;2023-09-30T05:09:37;10.23;;;4.75;;
44328;SDS011;30039;51.462;6.892;2023-09-30T05:12:23;12.48;;;5.28;;
44328;SDS011;30039;51.462;6.892;2023-09-30T05:15:09;11.32;;;4.40;;
44328;SDS011;30039;51.462;6.892;2023-09-30T05:17:55;14.40;;;4.85;;
44328;SDS011;30039;51.462;6.892;2023-09-30T05:20:40;11.98;;;5.18;;
44328;SDS011;30039;51.462;6.892;2023-09-30T05:23:26;11.90;;;5.32;;
44328;SDS011;30039;51.462;6.892;2023-09-30T05:26:11;10.90;;;4.90;;
44328;SDS011;30039;51.462;6.892;2023-09-30T05:28:57;15.65;;;5.50;;
44328;SDS011;30039;51.462;6.892;2023-09-30T05:31:42;14.27;;;6.28;;
44328;SDS011;30039;51.462;6.892;2023-09-30T05:34:28;13.57;;;5.35;;
44328;SDS011;30039;51.462;6.892;2023-09-30T05:37:14;14.45;;;5.40;;
44328;SDS011;30039;51.462;6.892;2023-09-30T05:39:59;15.63;;;6.05;;
44328;SDS011;30039;51.462;6.892;2023-09-30T05:42:45;11.93;;;6.07;;
44328;SDS011;30039;51.462;6.892;2023-09-30T05:45:31;12.90;;;6.30;;
44328;SDS011;30039;51.462;6.892;2023-09-30T05:48:19;13.25;;;5.90;;
44328;SDS011;30039;51.462;6.892;2023-09-30T05:51:05;14.88;;;6.07;;
44328;SDS011;30039;51.462;6.892;2023-09-30T05:53:52;11.35;;;5.72;;
44328;SDS011;30039;51.462;6.892;2023-09-30T05:56:39;14.75;;;6.95;;
44328;SDS011;30039;51.462;6.892;2023-09-30T05:59:28;12.93;;;5.80;;
44328;SDS011;30039;51.462;6.892;2023-09-30T06:02:14;15.68;;;6.20;;
44328;SDS011;30039;51.462;6.892;2023-09-30T06:05:00;11.95;;;5.97;;
44328;SDS011;30039;51.462;6.892;2023-09-30T06:07:46;16.20;;;6.50;;
44328;SDS011;30039;51.462;6.892;2023-09-30T06:10:32;16.17;;;7.15;;
44328;SDS011;30039;51.462;6.892;2023-09-30T06:13:17;16.15;;;7.10;;
44328;SDS011;30039;51.462;6.892;2023-09-30T06:16:03;16.27;;;6.53;;
44328;SDS011;30039;51.462;6.892;2023-09-30T06:18:48;15.30;;;7.22;;
44328;SDS011;30039;51.462;6.892;2023-09-30T06:21:34;17.10;;;7.50;;
44328;SDS011;30039;51.462;6.892;2023-09-30T06:24:20;21.50;;;7.82;;
44328;SDS011;30039;51.462;6.892;2023-09-30T06:27:06;17.60;;;7.60;;
44328;SDS011;30039;51.462;6.892;2023-09-30T06:29:51;15.82;;;7.60;;
44328;SDS011;30039;51.462;6.892;2023-09-30T06:32:37;12.15;;;7.00;;
44328;SDS011;30039;51.462;6.892;2023-09-30T06:35:22;16.00;;;7.57;;
44328;SDS011;30039;51.462;6.892;2023-09-30T06:38:08;16.10;;;7.15;;
44328;SDS011;30039;51.462;6.892;2023-09-30T06:40:54;15.50;;;7.75;;
44328;SDS011;30039;51.462;6.892;2023-09-30T06:43:39;18.88;;;7.20;;
44328;SDS011;30039;51.462;6.892;2023-09-30T06:46:25;15.93;;;7.57;;
44328;SDS011;30039;51.462;6.892;2023-09-30T06:49:11;14.10;;;7.43;;
44328;SDS011;30039;51.462;6.892;2023-09-30T06:51:57;17.90;;;7.68;;
44328;SDS011;30039;51.462;6.892;2023-09-30T06:54:42;17.60;;;7.35;;
44328;SDS011;30039;51.462;6.892;2023-09-30T06:57:28;13.60;;;7.15;;
44328;SDS011;30039;51.462;6.892;2023-09-30T07:00:14;14.85;;;6.75;;
44328;SDS011;30039;51.462;6.892;2023-09-30T07:03:00;15.38;;;7.35;;
44328;SDS011;30039;51.462;6.892;2023-09-30T07:05:47;18.40;;;8.45;;
44328;SDS011;30039;51.462;6.892;2023-09-30T07:08:35;16.45;;;7.82;;
44328;SDS011;30039;51.462;6.892;2023-09-30T07:11:30;15.50;;;7.22;;
44328;SDS011;30039;51.462;6.892;2023-09-30T07:14:17;14.05;;;7.07;;
44328;SDS011;30039;51.462;6.892;2023-09-30T07:17:04;14.77;;;7.07;;
44328;SDS011;30039;51.462;6.892;2023-09-30T07:19:49;19.35;;;7.60;;
44328;SDS011;30039;51.462;6.892;2023-09-30T07:22:36;17.02;;;7.82;;
44328;SDS011;30039;51.462;6.892;2023-09-30T07:25:21;15.32;;;7.22;;
44328;SDS011;30039;51.462;6.892;2023-09-30T07:28:07;17.48;;;7.63;;
44328;SDS011;30039;51.462;6.892;2023-09-30T07:30:56;17.20;;;7.22;;
44328;SDS011;30039;51.462;6.892;2023-09-30T07:33:42;15.43;;;6.70;;
44328;SDS011;30039;51.462;6.892;2023-09-30T07:36:28;17.20;;;7.05;;
44328;SDS011;30039;51.462;6.892;2023-09-30T07:39:13;12.32;;;6.10;;
44328;SDS011;30039;51.462;6.892;2023-09-30T07:41:59;16.15;;;6.75;;
44328;SDS011;30039;51.462;6.892;2023-09-30T07:44:44;13.40;;;6.72;;
44328;SDS011;30039;51.462;6.892;2023-09-30T07:47:30;16.35;;;6.78;;
44328;SDS011;30039;51.462;6.892;2023-09-30T07:50:19;12.38;;;6.20;;
44328;SDS011;30039;51.462;6.892;2023-09-30T07:53:04;12.68;;;6.35;;
44328;SDS011;30039;51.462;6.892;2023-09-30T07:55:50;12.20;;;6.45;;
44328;SDS011;30039;51.462;6.892;2023-09-30T07:58:35;11.68;;;5.93;;
44328;SDS011;30039;51.462;6.892;2023-09-30T08:01:21;12.40;;;6.60;;
44328;SDS011;30039;51.462;6.892;2023-09-30T08:04:07;15.45;;;6.80;;
44328;SDS011;30039;51.462;6.892;2023-09-30T08:06:52;14.00;;;7.25;;
44328;SDS011;30039;51.462;6.892;2023-09-30T08:09:38;17.23;;;7.15;;
44328;SDS011;30039;51.462;6.892;2023-09-30T08:12:24;13.27;;;6.70;;
44328;SDS011;30039;51.462;6.892;2023-09-30T08:15:09;10.15;;;6.38;;
44328;SDS011;30039;51.462;6.892;2023-09-30T08:17:59;14.55;;;6.30;;
44328;SDS011;30039;51.462;6.892;2023-09-30T08:20:45;16.38;;;7.65;;
44328;SDS011;30039;51.462;6.892;2023-09-30T08:23:30;9.18;;;5.85;;
44328;SDS011;30039;51.462;6.892;2023-09-30T08:26:16;11.07;;;5.80;;
44328;SDS011;30039;51.462;6.892;2023-09-30T08:29:01;11.88;;;5.93;;
44328;SDS011;30039;51.462;6.892;2023-09-30T08:31:48;11.63;;;5.90;;
44328;SDS011;30039;51.462;6.892;2023-09-30T08:34:35;10.65;;;5.50;;
44328;SDS011;30039;51.462;6.892;2023-09-30T08:37:21;14.38;;;6.30;;
44328;SDS011;30039;51.462;6.892;2023-09-30T08:40:06;13.20;;;6.00;;
44328;SDS011;30039;51.462;6.892;2023-09-30T08:42:55;9.45;;;5.68;;
44328;SDS011;30039;51.462;6.892;2023-09-30T08:45:40;9.43;;;5.07;;
44328;SDS011;30039;51.462;6.892;2023-09-30T08:48:29;9.15;;;4.63;;
44328;SDS011;30039;51.462;6.892;2023-09-30T08:51:15;10.70;;;5.30;;
44328;SDS011;30039;51.462;6.892;2023-09-30T08:54:01;8.63;;;4.90;;
44328;SDS011;30039;51.462;6.892;2023-09-30T08:56:49;10.40;;;4.85;;
44328;SDS011;30039;51.462;6.892;2023-09-30T08:59:35;11.70;;;4.78;;
44328;SDS011;30039;51.462;6.892;2023-09-30T09:02:21;8.65;;;4.25;;
44328;SDS011;30039;51.462;6.892;2023-09-30T09:05:09;12.10;;;4.70;;
44328;SDS011;30039;51.462;6.892;2023-09-30T09:07:56;9.38;;;4.38;;
44328;SDS011;30039;51.462;6.892;2023-09-30T09:10:54;8.02;;;4.03;;
44328;SDS011;30039;51.462;6.892;2023-09-30T09:13:48;9.30;;;4.07;;
44328;SDS011;30039;51.462;6.892;2023-09-30T09:19:21;9.13;;;4.45;;
44328;SDS011;30039;51.462;6.892;2023-09-30T09:22:06;9.35;;;4.50;;
44328;SDS011;30039;51.462;6.892;2023-09-30T09:24:52;11.05;;;4.60;;
44328;SDS011;30039;51.462;6.892;2023-09-30T09:27:38;9.02;;;4.03;;
44328;SDS011;30039;51.462;6.892;2023-09-30T09:30:24;9.55;;;3.78;;
44328;SDS011;30039;51.462;6.892;2023-09-30T09:33:10;8.93;;;3.83;;
44328;SDS011;30039;51.462;6.892;2023-09-30T09:35:55;9.38;;;3.65;;
44328;SDS011;30039;51.462;6.892;2023-09-30T09:38:45;9.68;;;3.80;;
44328;SDS011;30039;51.462;6.892;2023-09-30T09:41:30;37.95;;;5.65;;
44328;SDS011;30039;51.462;6.892;2023-09-30T09:44:16;30.85;;;5.20;;
44328;SDS011;30039;51.462;6.892;2023-09-30T09:47:02;8.35;;;3.72;;
44328;SDS011;30039;51.462;6.892;2023-09-30T09:49:50;7.70;;;3.90;;
44328;SDS011;30039;51.462;6.892;2023-09-30T09:52:37;9.02;;;3.65;;
44328;SDS011;30039;51.462;6.892;2023-09-30T09:55:23;10.82;;;3.78;;
44328;SDS011;30039;51.462;6.892;2023-09-30T09:58:09;7.25;;;3.50;;
44328;SDS011;30039;51.462;6.892;2023-09-30T10:00:55;8.07;;;3.30;;
44328;SDS011;30039;51.462;6.892;2023-09-30T10:03:41;6.07;;;3.00;;
44328;SDS011;30039;51.462;6.892;2023-09-30T10:06:27;5.43;;;2.75;;
44328;SDS011;30039;51.462;6.892;2023-09-30T10:09:13;5.68;;;2.90;;
44328;SDS011;30039;51.462;6.892;2023-09-30T10:11:59;8.23;;;2.83;;
44328;SDS011;30039;51.462;6.892;2023-09-30T10:14:45;8.48;;;2.70;;
44328;SDS011;30039;51.462;6.892;2023-09-30T10:18:16;7.90;;;2.97;;
44328;SDS011;30039;51.462;6.892;2023-09-30T10:20:38;11.38;;;3.78;;
44328;SDS011;30039;51.462;6.892;2023-09-30T10:23:26;9.13;;;4.50;;
44328;SDS011;30039;51.462;6.892;2023-09-30T10:29:00;8.48;;;3.30;;
44328;SDS011;30039;51.462;6.892;2023-09-30T10:31:54;7.80;;;3.30;;
44328;SDS011;30039;51.462;6.892;2023-09-30T10:34:44;7.90;;;3.53;;
44328;SDS011;30039;51.462;6.892;2023-09-30T10:37:32;7.07;;;3.47;;
44328;SDS011;30039;51.462;6.892;2023-09-30T10:40:28;6.45;;;3.47;;
44328;SDS011;30039;51.462;6.892;2023-09-30T10:43:29;6.97;;;3.25;;
44328;SDS011;30039;51.462;6.892;2023-09-30T10:49:15;9.30;;;4.10;;
44328;SDS011;30039;51.462;6.892;2023-09-30T10:52:02;6.88;;;3.30;;
44328;SDS011;30039;51.462;6.892;2023-09-30T10:54:48;6.22;;;3.70;;
44328;SDS011;30039;51.462;6.892;2023-09-30T10:57:34;7.07;;;3.58;;
44328;SDS011;30039;51.462;6.892;2023-09-30T11:00:20;8.73;;;3.50;;
44328;SDS011;30039;51.462;6.892;2023-09-30T11:03:05;7.90;;;3.33;;
44328;SDS011;30039;51.462;6.892;2023-09-30T11:05:51;7.72;;;3.08;;
44328;SDS011;30039;51.462;6.892;2023-09-30T11:08:40;9.27;;;3.47;;
44328;SDS011;30039;51.462;6.892;2023-09-30T11:11:39;8.55;;;2.90;;
44328;SDS011;30039;51.462;6.892;2023-09-30T11:14:28;5.57;;;2.58;;
44328;SDS011;30039;51.462;6.892;2023-09-30T11:17:15;7.40;;;2.63;;
44328;SDS011;30039;51.462;6.892;2023-09-30T11:20:07;5.15;;;2.33;;
44328;SDS011;30039;51.462;6.892;2023-09-30T11:22:53;5.07;;;2.42;;
44328;SDS011;30039;51.462;6.892;2023-09-30T11:25:39;8.52;;;2.60;;
44328;SDS011;30039;51.462;6.892;2023-09-30T11:28:35;8.55;;;2.45;;
44328;SDS011;30039;51.462;6.892;2023-09-30T11:31:21;6.68;;;2.13;;
44328;SDS011;30039;51.462;6.892;2023-09-30T11:34:07;5.43;;;2.38;;
44328;SDS011;30039;51.462;6.892;2023-09-30T11:36:53;8.43;;;3.17;;
44328;SDS011;30039;51.462;6.892;2023-09-30T11:39:38;19.25;;;8.68;;
44328;SDS011;30039;51.462;6.892;2023-09-30T11:42:24;6.22;;;2.75;;
44328;SDS011;30039;51.462;6.892;2023-09-30T11:45:19;8.30;;;3.20;;
44328;SDS011;30039;51.462;6.892;2023-09-30T11:48:27;8.05;;;2.83;;
44328;SDS011;30039;51.462;6.892;2023-09-30T11:51:12;7.30;;;2.97;;
44328;SDS011;30039;51.462;6.892;2023-09-30T11:54:00;6.68;;;2.10;;
44328;SDS011;30039;51.462;6.892;2023-09-30T11:56:46;7.07;;;2.60;;
44328;SDS011;30039;51.462;6.892;2023-09-30T11:59:33;6.68;;;2.40;;
44328;SDS011;30039;51.462;6.892;2023-09-30T12:02:18;4.97;;;2.67;;
44328;SDS011;30039;51.462;6.892;2023-09-30T12:05:04;3.88;;;2.13;;
44328;SDS011;30039;51.462;6.892;2023-09-30T12:07:56;4.75;;;2.00;;
44328;SDS011;30039;51.462;6.892;2023-09-30T12:10:42;4.65;;;2.13;;
44328;SDS011;30039;51.462;6.892;2023-09-30T12:13:27;4.30;;;2.38;;
44328;SDS011;30039;51.462;6.892;2023-09-30T12:16:13;7.10;;;2.30;;
44328;SDS011;30039;51.462;6.892;2023-09-30T12:18:58;7.40;;;2.83;;
44328;SDS011;30039;51.462;6.892;2023-09-30T12:21:44;7.03;;;2.88;;
44328;SDS011;30039;51.462;6.892;2023-09-30T12:24:33;5.78;;;2.30;;
44328;SDS011;30039;51.462;6.892;2023-09-30T12:27:19;5.65;;;2.15;;
44328;SDS011;30039;51.462;6.892;2023-09-30T12:30:04;5.43;;;2.20;;
44328;SDS011;30039;51.462;6.892;2023-09-30T12:32:52;6.72;;;2.45;;
44328;SDS011;30039;51.462;6.892;2023-09-30T12:35:40;6.45;;;2.03;;
44328;SDS011;30039;51.462;6.892;2023-09-30T12:38:25;4.95;;;2.03;;
44328;SDS011;30039;51.462;6.892;2023-09-30T12:41:12;6.07;;;2.22;;
44328;SDS011;30039;51.462;6.892;2023-09-30T12:43:58;5.05;;;2.30;;
44328;SDS011;30039;51.462;6.892;2023-09-30T12:46:43;6.97;;;2.60;;
44328;SDS011;30039;51.462;6.892;2023-09-30T12:49:29;5.95;;;2.35;;
44328;SDS011;30039;51.462;6.892;2023-09-30T12:52:14;8.93;;;3.38;;
44328;SDS011;30039;51.462;6.892;2023-09-30T12:55:00;7.03;;;2.53;;
44328;SDS011;30039;51.462;6.892;2023-09-30T12:57:45;4.15;;;2.40;;
44328;SDS011;30039;51.462;6.892;2023-09-30T13:00:31;4.82;;;2.47;;
44328;SDS011;30039;51.462;6.892;2023-09-30T13:03:18;7.57;;;2.33;;
44328;SDS011;30039;51.462;6.892;2023-09-30T13:06:04;5.32;;;2.10;;
44328;SDS011;30039;51.462;6.892;2023-09-30T13:08:50;8.05;;;2.83;;
44328;SDS011;30039;51.462;6.892;2023-09-30T13:11:35;8.18;;;3.00;;
44328;SDS011;30039;51.462;6.892;2023-09-30T13:14:21;6.68;;;2.72;;
44328;SDS011;30039;51.462;6.892;2023-09-30T13:17:06;8.52;;;2.30;;
44328;SDS011;30039;51.462;6.892;2023-09-30T13:19:53;4.95;;;2.35;;
44328;SDS011;30039;51.462;6.892;2023-09-30T13:22:39;6.72;;;2.75;;
44328;SDS011;30039;51.462;6.892;2023-09-30T13:25:25;7.90;;;2.80;;
44328;SDS011;30039;51.462;6.892;2023-09-30T13:28:11;7.38;;;2.40;;
44328;SDS011;30039;51.462;6.892;2023-09-30T13:30:57;4.88;;;2.22;;
44328;SDS011;30039;51.462;6.892;2023-09-30T13:33:43;3.60;;;2.10;;
44328;SDS011;30039;51.462;6.892;2023-09-30T13:36:29;6.85;;;2.25;;
44328;SDS011;30039;51.462;6.892;2023-09-30T13:39:14;6.45;;;2.20;;
44328;SDS011;30039;51.462;6.892;2023-09-30T13:42:02;3.83;;;1.83;;
44328;SDS011;30039;51.462;6.892;2023-09-30T13:44:48;21.20;;;6.25;;
44328;SDS011;30039;51.462;6.892;2023-09-30T13:47:34;8.30;;;2.50;;
44328;SDS011;30039;51.462;6.892;2023-09-30T13:50:19;7.20;;;2.80;;
44328;SDS011;30039;51.462;6.892;2023-09-30T13:53:05;7.05;;;2.28;;
44328;SDS011;30039;51.462;6.892;2023-09-30T13:55:50;3.92;;;2.10;;
44328;SDS011;30039;51.462;6.892;2023-09-30T13:58:37;5.30;;;2.17;;
44328;SDS011;30039;51.462;6.892;2023-09-30T14:01:23;5.05;;;2.15;;
44328;SDS011;30039;51.462;6.892;2023-09-30T14:04:08;4.40;;;2.25;;
44328;SDS011;30039;51.462;6.892;2023-09-30T14:06:54;4.15;;;2.05;;
44328;SDS011;30039;51.462;6.892;2023-09-30T14:09:39;5.35;;;2.38;;
44328;SDS011;30039;51.462;6.892;2023-09-30T14:12:25;8.65;;;2.50;;
44328;SDS011;30039;51.462;6.892;2023-09-30T14:15:10;5.78;;;2.30;;
44328;SDS011;30039;51.462;6.892;2023-09-30T14:17:56;5.38;;;2.60;;
44328;SDS011;30039;51.462;6.892;2023-09-30T14:20:43;4.50;;;2.45;;
44328;SDS011;30039;51.462;6.892;2023-09-30T14:23:28;7.00;;;2.58;;
44328;SDS011;30039;51.462;6.892;2023-09-30T14:26:14;6.47;;;2.63;;
44328;SDS011;30039;51.462;6.892;2023-09-30T14:29:00;6.75;;;2.40;;
44328;SDS011;30039;51.462;6.892;2023-09-30T14:31:45;5.68;;;2.22;;
44328;SDS011;30039;51.462;6.892;2023-09-30T14:34:32;8.18;;;2.78;;
44328;SDS011;30039;51.462;6.892;2023-09-30T14:37:17;6.53;;;2.30;;
44328;SDS011;30039;51.462;6.892;2023-09-30T14:40:03;7.22;;;2.13;;
44328;SDS011;30039;51.462;6.892;2023-09-30T14:42:55;5.43;;;2.10;;
44328;SDS011;30039;51.462;6.892;2023-09-30T14:45:41;6.57;;;2.40;;
44328;SDS011;30039;51.462;6.892;2023-09-30T14:48:26;7.38;;;2.30;;
44328;SDS011;30039;51.462;6.892;2023-09-30T14:51:12;5.50;;;2.33;;
44328;SDS011;30039;51.462;6.892;2023-09-30T14:53:57;7.28;;;2.40;;
44328;SDS011;30039;51.462;6.892;2023-09-30T14:56:43;5.75;;;2.40;;
44328;SDS011;30039;51.462;6.892;2023-09-30T14:59:29;4.30;;;2.00;;
44328;SDS011;30039;51.462;6.892;2023-09-30T15:02:17;7.05;;;2.50;;
44328;SDS011;30039;51.462;6.892;2023-09-30T15:05:03;6.10;;;2.28;;
44328;SDS011;30039;51.462;6.892;2023-09-30T15:07:49;3.90;;;2.10;;
44328;SDS011;30039;51.462;6.892;2023-09-30T15:10:34;4.93;;;2.15;;
44328;SDS011;30039;51.462;6.892;2023-09-30T15:13:21;6.82;;;1.80;;
44328;SDS011;30039;51.462;6.892;2023-09-30T15:16:14;8.25;;;2.28;;
44328;SDS011;30039;51.462;6.892;2023-09-30T15:19:02;7.72;;;2.35;;
44328;SDS011;30039;51.462;6.892;2023-09-30T15:21:48;5.00;;;2.30;;
44328;SDS011;30039;51.462;6.892;2023-09-30T15:24:35;4.78;;;2.28;;
44328;SDS011;30039;51.462;6.892;2023-09-30T15:27:20;8.80;;;2.70;;
44328;SDS011;30039;51.462;6.892;2023-09-30T15:30:07;7.97;;;2.55;;
44328;SDS011;30039;51.462;6.892;2023-09-30T15:32:53;5.82;;;2.90;;
44328;SDS011;30039;51.462;6.892;2023-09-30T15:35:38;5.05;;;2.40;;
44328;SDS011;30039;51.462;6.892;2023-09-30T15:38:24;5.45;;;2.30;;
44328;SDS011;30039;51.462;6.892;2023-09-30T15:41:11;6.35;;;2.22;;
44328;SDS011;30039;51.462;6.892;2023-09-30T15:43:59;4.80;;;2.17;;
44328;SDS011;30039;51.462;6.892;2023-09-30T15:46:45;5.90;;;2.33;;
44328;SDS011;30039;51.462;6.892;2023-09-30T15:49:31;5.93;;;2.35;;
44328;SDS011;30039;51.462;6.892;2023-09-30T15:52:16;4.45;;;2.17;;
44328;SDS011;30039;51.462;6.892;2023-09-30T15:55:02;3.65;;;2.42;;
44328;SDS011;30039;51.462;6.892;2023-09-30T15:57:48;7.50;;;2.60;;
44328;SDS011;30039;51.462;6.892;2023-09-30T16:00:36;5.38;;;2.45;;
44328;SDS011;30039;51.462;6.892;2023-09-30T16:03:23;5.03;;;2.40;;
44328;SDS011;30039;51.462;6.892;2023-09-30T16:06:09;4.90;;;2.38;;
44328;SDS011;30039;51.462;6.892;2023-09-30T16:08:54;4.50;;;2.67;;
44328;SDS011;30039;51.462;6.892;2023-09-30T16:11:41;5.07;;;2.50;;
44328;SDS011;30039;51.462;6.892;2023-09-30T16:14:27;6.40;;;2.40;;
44328;SDS011;30039;51.462;6.892;2023-09-30T16:17:13;4.72;;;2.60;;
44328;SDS011;30039;51.462;6.892;2023-09-30T16:19:58;8.48;;;2.75;;
44328;SDS011;30039;51.462;6.892;2023-09-30T16:22:44;6.43;;;2.22;;
44328;SDS011;30039;51.462;6.892;2023-09-30T16:25:29;7.38;;;2.70;;
44328;SDS011;30039;51.462;6.892;2023-09-30T16:28:15;7.35;;;2.33;;
44328;SDS011;30039;51.462;6.892;2023-09-30T16:31:00;6.00;;;3.08;;
44328;SDS011;30039;51.462;6.892;2023-09-30T16:33:46;7.72;;;2.70;;
44328;SDS011;30039;51.462;6.892;2023-09-30T16:36:31;6.65;;;2.35;;
44328;SDS011;30039;51.462;6.892;2023-09-30T16:39:17;6.70;;;2.30;;
44328;SDS011;30039;51.462;6.892;2023-09-30T16:42:03;4.55;;;2.30;;
44328;SDS011;30039;51.462;6.892;2023-09-30T16:44:48;4.30;;;2.42;;
44328;SDS011;30039;51.462;6.892;2023-09-30T16:47:35;4.63;;;2.20;;